Time;durP1;ratioP1;P1;durP2;ratioP2;P2;SDS_P1;SDS_P2;PMS_P1;PMS_P2;Temp;Humidity;BMP_temperature;BMP_pressure;BME280_temperature;BME280_humidity;BME280_pressure;Samples;Min_cycle;Max_cycle;Signal;HPM_P1;HPM_P2
2021/12/24 00:01:26;;;;;;;;;;;;;;;-1.34;62.53;100379.31;5107884;27;19957;-85
2021/12/24 00:03:52;;;;;;;;;;;;;;;-1.41;63.16;100371.19;5106509;28;20415;-84
2021/12/24 00:06:17;;;;;;;;;;;;;;;-1.49;63.05;100371.72;5108469;28;19980;-85
2021/12/24 00:08:45;;;;;;;;;;;;;;;-1.36;62.77;100370.59;5119639;27;19924;-84
2021/12/24 00:11:10;;;;;;;;;;;;;;;-1.54;63.97;100359.44;5112110;27;19923;-84
2021/12/24 00:13:42;;;;;;;;;;;;;;;-1.55;63.42;100363.69;5092461;28;19931;-84
2021/12/24 00:37:11;;;;;;;;;;;;;;;-1.66;63.56;100367.53;5087535;28;19974;-84
2021/12/24 00:39:45;;;;;;;;;;;;;;;-1.77;64.22;100372.22;5088130;27;20737;-84
2021/12/24 00:42:11;;;;;;;;;;;;;;;-1.79;63.74;100368.69;5127631;27;20313;-85
2021/12/24 00:44:37;;;;;;;;;;;;;;;-1.74;63.54;100361.13;5121840;27;20709;-85
2021/12/24 00:47:02;;;;;;;;;;;;;;;-1.89;63.88;100356.13;5126680;27;19919;-85
2021/12/24 00:49:28;;;;;;;;;;;;;;;-2.04;65.10;100357.22;5108644;27;19919;-85
2021/12/24 00:52:07;;;;;;;;;;;;;;;-2.04;65.62;100346.88;5127196;27;19930;-84
2021/12/24 00:57:20;;;;;;;;;;;;;;;-2.30;65.86;100329.22;5127266;27;19964;-84
2021/12/24 00:59:45;;;;;;;;;;;;;;;-2.22;65.42;100321.03;5125771;27;20334;-84
2021/12/24 01:02:11;;;;;;;;;;;;;;;-2.22;65.59;100325.34;5106390;28;19931;-84
2021/12/24 01:04:36;;;;;;;;;;;;;;;-2.11;65.58;100324.13;5102772;28;20022;-85
2021/12/24 01:07:02;;;;;;;;;;;;;;;-2.20;65.98;100329.72;5105488;28;19923;-85
2021/12/24 01:09:27;;;;;;;;;;;;;;;-2.32;66.57;100317.94;5123428;28;19928;-84
2021/12/24 01:11:52;;;;;;;;;;;;;;;-2.34;66.86;100317.88;5121275;27;19930;-85
2021/12/24 01:14:20;;;;;;;;;;;;;;;-2.24;66.21;100316.59;5108117;28;19927;-85
2021/12/24 01:16:55;;;;;;;;;;;;;;;-2.36;66.99;100297.13;5105638;28;20408;-85
2021/12/24 01:19:24;;;;;;;;;;;;;;;-2.57;67.03;100299.59;5106596;28;19924;-85
2021/12/24 01:24:32;;;;;;;;;;;;;;;-2.25;66.54;100286.41;5126076;27;19968;-84
2021/12/24 01:37:55;;;;;;;;;;;;;;;-2.02;64.36;100280.59;5104496;28;19923;-84
2021/12/24 01:43:05;;;;;;;;;;;;;;;-1.94;64.14;100273.16;5106166;28;19930;-84
2021/12/24 01:45:31;;;;;;;;;;;;;;;-1.84;63.57;100253.75;5105871;28;19919;-84
2021/12/24 01:47:58;;;;;;;;;;;;;;;-1.91;63.58;100256.91;5118789;28;20297;-84
2021/12/24 01:50:25;;;;;;;;;;;;;;;-1.93;64.13;100248.19;5128595;27;19962;-84
2021/12/24 01:52:53;;;;;;;;;;;;;;;-2.09;63.76;100236.28;5131236;27;19919;-84
2021/12/24 01:55:18;;;;;;;;;;;;;;;-2.16;63.83;100230.84;5124248;27;19927;-84
2021/12/24 01:57:44;;;;;;;;;;;;;;;-2.07;64.90;100225.22;5121529;27;19923;-84
2021/12/24 02:00:13;;;;;;;;;;;;;;;-2.11;64.47;100227.59;5110672;28;20385;-85
2021/12/24 02:02:38;;;;;;;;;;;;;;;-2.16;64.48;100227.38;5109425;28;20314;-84
2021/12/24 02:05:04;;;;;;;;;;;;;;;-2.02;64.46;100222.81;5111063;27;19934;-84
2021/12/24 02:07:29;;;;;;;;;;;;;;;-1.90;64.15;100215.59;5120934;27;20010;-84
2021/12/24 02:09:55;;;;;;;;;;;;;;;-1.95;63.79;100213.63;5129627;27;20662;-84
2021/12/24 02:12:23;;;;;;;;;;;;;;;-2.08;63.78;100201.88;5128615;27;19931;-85
2021/12/24 02:14:52;;;;;;;;;;;;;;;-2.08;63.82;100195.00;5126381;27;20111;-85
2021/12/24 02:30:50;;;;;;;;;;;;;;;-2.24;64.40;100175.34;5124757;27;19920;-85
2021/12/24 02:33:16;;;;;;;;;;;;;;;-2.19;64.99;100179.00;5128926;27;19920;-85
2021/12/24 02:35:41;;;;;;;;;;;;;;;-2.08;63.48;100192.41;5130837;27;19919;-85
2021/12/24 02:38:07;;;;;;;;;;;;;;;-2.32;63.44;100197.34;5110228;27;19946;-85
2021/12/24 02:40:33;;;;;;;;;;;;;;;-2.24;63.85;100188.28;5108242;28;19920;-85
2021/12/24 02:42:59;;;;;;;;;;;;;;;-2.31;64.37;100187.94;5108966;28;20363;-85
2021/12/24 02:45:26;;;;;;;;;;;;;;;-2.37;64.71;100181.66;5107433;28;20530;-85
2021/12/24 02:55:29;;;;;;;;;;;;;;;-2.27;64.13;100176.88;5108456;28;20035;-85
2021/12/24 02:57:55;;;;;;;;;;;;;;;-2.71;64.29;100182.69;5127452;27;20033;-84
2021/12/24 03:00:25;;;;;;;;;;;;;;;-2.80;64.92;100174.53;5129929;27;19919;-85
2021/12/24 03:02:51;;;;;;;;;;;;;;;-2.64;65.20;100175.22;5124864;27;19934;-85
2021/12/24 03:05:17;;;;;;;;;;;;;;;-2.59;64.90;100190.13;5090724;28;20406;-85
2021/12/24 03:07:42;;;;;;;;;;;;;;;-2.58;64.78;100185.84;5107354;27;19930;-85
2021/12/24 03:10:13;;;;;;;;;;;;;;;-2.56;64.71;100173.91;5106964;28;20487;-84
2021/12/24 03:12:39;;;;;;;;;;;;;;;-2.84;64.41;100190.72;5102934;28;19919;-85
2021/12/24 03:15:06;;;;;;;;;;;;;;;-2.66;64.33;100185.50;5108562;28;19927;-85
2021/12/24 03:17:32;;;;;;;;;;;;;;;-2.78;64.40;100201.34;5126021;27;19923;-85
2021/12/24 03:20:03;;;;;;;;;;;;;;;-2.65;64.45;100183.81;5127373;27;20026;-84
2021/12/24 03:22:49;;;;;;;;;;;;;;;-2.73;64.14;100186.91;5108651;28;19924;-85
2021/12/24 03:25:14;;;;;;;;;;;;;;;-2.45;63.54;100179.56;5109972;27;19916;-85
2021/12/24 03:27:40;;;;;;;;;;;;;;;-2.75;65.10;100179.91;5129524;27;19926;-85
2021/12/24 03:30:05;;;;;;;;;;;;;;;-2.92;64.93;100192.03;5115045;27;19930;-85
2021/12/24 03:32:31;;;;;;;;;;;;;;;-2.86;65.70;100186.28;5108919;28;20487;-85
2021/12/24 03:34:56;;;;;;;;;;;;;;;-3.38;66.54;100201.06;5105393;28;19923;-85
2021/12/24 03:37:22;;;;;;;;;;;;;;;-3.04;66.48;100187.19;5123688;27;19923;-86
2021/12/24 03:39:47;;;;;;;;;;;;;;;-2.87;65.88;100177.66;5130185;27;19968;-86
2021/12/24 03:42:12;;;;;;;;;;;;;;;-2.89;65.19;100172.44;5112908;27;19924;-85
2021/12/24 03:44:42;;;;;;;;;;;;;;;-2.75;65.21;100164.41;5108332;28;19920;-85
2021/12/24 03:47:17;;;;;;;;;;;;;;;-2.91;64.51;100147.34;5128110;27;19923;-85
2021/12/24 03:54:57;;;;;;;;;;;;;;;-2.95;65.61;100137.66;5108689;27;20324;-86
2021/12/24 03:57:43;;;;;;;;;;;;;;;-2.98;64.58;100129.78;5129010;27;19916;-85
2021/12/24 04:00:11;;;;;;;;;;;;;;;-2.98;65.26;100135.84;5126884;27;19922;-83
2021/12/24 04:02:36;;;;;;;;;;;;;;;-2.97;64.77;100136.72;5107726;28;19920;-85
2021/12/24 04:05:02;;;;;;;;;;;;;;;-3.06;65.42;100135.50;5121814;27;19930;-85
2021/12/24 04:07:27;;;;;;;;;;;;;;;-3.08;65.33;100131.06;5107691;28;19930;-85
2021/12/24 04:10:03;;;;;;;;;;;;;;;-3.00;65.07;100127.13;5109038;28;19923;-85
2021/12/24 04:12:29;;;;;;;;;;;;;;;-3.02;65.41;100130.47;5106470;28;19928;-86
2021/12/24 04:14:55;;;;;;;;;;;;;;;-2.97;65.40;100128.97;5107814;27;20022;-86
2021/12/24 04:17:21;;;;;;;;;;;;;;;-2.95;65.52;100124.75;5127649;27;19924;-85
2021/12/24 04:24:59;;;;;;;;;;;;;;;-3.09;64.13;100111.22;5121351;27;19980;-85
2021/12/24 04:27:25;;;;;;;;;;;;;;;-3.15;64.55;100104.09;5128516;27;19930;-85
2021/12/24 04:29:58;;;;;;;;;;;;;;;-3.30;65.45;100105.97;5113117;27;19920;-85
2021/12/24 04:32:33;;;;;;;;;;;;;;;-3.22;64.61;100096.88;5106972;28;19924;-85
2021/12/24 04:35:14;;;;;;;;;;;;;;;-3.21;64.88;100087.41;5113178;27;20352;-85
2021/12/24 05:04:35;;;;;;;;;;;;;;;-3.15;64.84;100070.53;5127677;27;19926;-85
2021/12/24 05:07:57;;;;;;;;;;;;;;;-3.25;65.02;100064.06;5087526;28;19927;-85
2021/12/24 05:09:48;;;;;;;;;;;;;;;-3.08;64.44;100071.69;5079496;28;19920;-85
2021/12/24 05:12:14;;;;;;;;;;;;;;;-3.12;64.11;100075.84;5087594;28;19916;-85
2021/12/24 05:14:39;;;;;;;;;;;;;;;-3.11;64.45;100077.59;5088908;28;19923;-86
2021/12/24 05:22:33;;;;;;;;;;;;;;;-3.21;64.72;100097.75;5116999;28;19974;-86
2021/12/24 05:24:58;;;;;;;;;;;;;;;-3.27;64.82;100099.22;5117434;27;19971;-86
2021/12/24 05:27:24;;;;;;;;;;;;;;;-3.39;65.43;100100.38;5111846;28;19930;-85
2021/12/24 05:29:49;;;;;;;;;;;;;;;-3.36;65.61;100103.97;5111620;28;20341;-85
2021/12/24 05:32:15;;;;;;;;;;;;;;;-3.29;65.59;100099.97;5111659;28;19926;-85
2021/12/24 05:34:40;;;;;;;;;;;;;;;-3.26;65.32;100105.28;5110143;28;20010;-85
2021/12/24 05:37:05;;;;;;;;;;;;;;;-3.22;66.07;100098.56;5132193;27;19923;-85
2021/12/24 05:39:31;;;;;;;;;;;;;;;-3.26;65.75;100110.44;5132022;27;19955;-83
2021/12/24 05:41:56;;;;;;;;;;;;;;;-3.44;66.10;100113.91;5116103;27;19946;-82
2021/12/24 05:44:22;;;;;;;;;;;;;;;-3.36;65.19;100116.00;5110556;27;19916;-83
2021/12/24 05:46:47;;;;;;;;;;;;;;;-3.50;65.61;100105.88;5098116;27;19924;-84
2021/12/24 05:49:13;;;;;;;;;;;;;;;-3.57;65.86;100108.97;5091321;28;19970;-84
2021/12/24 05:51:38;;;;;;;;;;;;;;;-3.88;67.38;100107.47;5090957;28;19920;-85
2021/12/24 05:54:04;;;;;;;;;;;;;;;-3.72;67.08;100103.06;5090310;28;19916;-85
2021/12/24 05:56:30;;;;;;;;;;;;;;;-3.77;67.15;100100.28;5121505;27;20377;-85
2021/12/24 05:58:55;;;;;;;;;;;;;;;-3.65;67.64;100100.00;5131915;27;19985;-84
2021/12/24 06:01:21;;;;;;;;;;;;;;;-3.54;67.71;100115.97;5114304;27;20415;-85
2021/12/24 06:03:47;;;;;;;;;;;;;;;-3.40;67.45;100114.94;5096813;27;20432;-83
2021/12/24 06:06:12;;;;;;;;;;;;;;;-3.18;66.88;100116.84;5107026;27;20010;-83
2021/12/24 06:08:38;;;;;;;;;;;;;;;-3.00;65.90;100123.69;5111084;28;20305;-84
2021/12/24 06:11:03;;;;;;;;;;;;;;;-3.01;65.78;100109.00;5107101;28;20003;-83
2021/12/24 06:13:29;;;;;;;;;;;;;;;-2.86;65.83;100103.66;5108841;28;19990;-86
2021/12/24 06:15:55;;;;;;;;;;;;;;;-2.79;66.33;100106.59;5110913;28;19919;-86
2021/12/24 06:18:24;;;;;;;;;;;;;;;-2.87;65.20;100118.28;5111019;28;19923;-86
2021/12/24 06:20:50;;;;;;;;;;;;;;;-2.96;65.25;100110.97;5111103;28;19969;-86
2021/12/24 06:23:18;;;;;;;;;;;;;;;-2.88;65.40;100101.88;5114452;27;19987;-84
2021/12/24 06:25:43;;;;;;;;;;;;;;;-2.84;65.42;100108.09;5125858;27;19923;-84
2021/12/24 06:28:09;;;;;;;;;;;;;;;-2.80;65.06;100103.94;5124569;27;19976;-84
2021/12/24 06:30:34;;;;;;;;;;;;;;;-2.85;65.47;100102.84;5112143;27;19920;-83
2021/12/24 06:33:01;;;;;;;;;;;;;;;-2.79;65.62;100092.81;5110845;28;20014;-85
2021/12/24 06:35:27;;;;;;;;;;;;;;;-2.60;65.56;100091.91;5109951;27;19923;-83
2021/12/24 06:37:53;;;;;;;;;;;;;;;-2.61;65.32;100098.78;5110023;28;19927;-84
2021/12/24 06:40:19;;;;;;;;;;;;;;;-2.73;65.65;100103.41;5123250;27;19916;-88
2021/12/24 06:42:44;;;;;;;;;;;;;;;-2.60;65.49;100105.69;5095434;27;20453;-85
2021/12/24 06:45:10;;;;;;;;;;;;;;;-2.68;64.68;100093.28;5112990;27;19927;-86
2021/12/24 06:47:36;;;;;;;;;;;;;;;-2.68;65.44;100091.56;5089973;28;19919;-84
2021/12/24 06:50:01;;;;;;;;;;;;;;;-2.40;65.47;100090.19;5100803;28;19916;-85
2021/12/24 06:52:26;;;;;;;;;;;;;;;-2.31;64.47;100084.56;5108131;28;20381;-85
2021/12/24 06:54:52;;;;;;;;;;;;;;;-2.19;64.44;100067.84;5110454;28;19922;-83
2021/12/24 06:57:19;;;;;;;;;;;;;;;-2.17;64.83;100076.53;5110147;28;20184;-84
2021/12/24 06:59:44;;;;;;;;;;;;;;;-2.06;65.06;100078.72;5107408;28;19927;-84
2021/12/24 07:02:10;;;;;;;;;;;;;;;-2.07;65.06;100069.19;5099747;28;20386;-84
2021/12/24 07:04:35;;;;;;;;;;;;;;;-1.96;64.01;100070.53;5103133;27;20065;-82
2021/12/24 07:07:01;;;;;;;;;;;;;;;-1.78;64.18;100060.03;5109538;28;19980;-83
2021/12/24 07:09:26;;;;;;;;;;;;;;;-1.84;64.05;100057.19;5109043;27;20024;-84
2021/12/24 07:11:51;;;;;;;;;;;;;;;-1.46;64.62;100052.69;5109659;28;19919;-83
2021/12/24 07:14:17;;;;;;;;;;;;;;;-1.30;66.38;100051.56;5108272;28;19927;-84
2021/12/24 07:16:42;;;;;;;;;;;;;;;-0.40;67.74;100048.81;5109431;28;20300;-83
2021/12/24 07:19:07;;;;;;;;;;;;;;;0.14;64.53;100058.41;5109872;28;20498;-83
2021/12/24 07:21:35;;;;;;;;;;;;;;;0.38;64.72;100057.41;5090654;28;19927;-84
2021/12/24 07:24:00;;;;;;;;;;;;;;;0.65;63.70;100048.72;5108536;28;19916;-84
2021/12/24 07:26:26;;;;;;;;;;;;;;;0.62;61.04;100039.16;5109175;28;20423;-83
2021/12/24 07:28:51;;;;;;;;;;;;;;;0.85;61.11;100024.25;5097000;28;19927;-85
2021/12/24 07:31:16;;;;;;;;;;;;;;;0.90;59.78;100027.00;5088544;28;19924;-85
2021/12/24 07:33:42;;;;;;;;;;;;;;;0.73;59.05;100038.56;5088140;28;19920;-87
2021/12/24 07:36:07;;;;;;;;;;;;;;;0.94;58.29;100028.81;5099700;28;19927;-85
2021/12/24 07:38:33;;;;;;;;;;;;;;;0.70;57.86;100039.38;5094364;28;19924;-85
2021/12/24 07:40:59;;;;;;;;;;;;;;;0.75;57.29;100030.00;5100934;28;20404;-84
2021/12/24 07:43:24;;;;;;;;;;;;;;;0.74;56.43;100038.63;5097445;28;19919;-84
2021/12/24 07:45:51;;;;;;;;;;;;;;;0.87;56.47;100024.28;5109009;28;19924;-83
2021/12/24 07:48:26;;;;;;;;;;;;;;;0.90;55.34;100037.38;5107688;28;19930;-83
2021/12/24 07:53:17;;;;;;;;;;;;;;;0.81;54.90;100045.75;5105729;28;19927;-82
2021/12/24 07:55:43;;;;;;;;;;;;;;;0.60;55.15;100052.91;5109492;28;20397;-82
2021/12/24 07:58:08;;;;;;;;;;;;;;;0.46;55.87;100057.66;5099681;28;19930;-82
2021/12/24 08:00:35;;;;;;;;;;;;;;;0.54;56.25;100058.78;5086445;28;20050;-85
2021/12/24 08:03:03;;;;;;;;;;;;;;;0.98;59.62;100042.78;5098624;28;20676;-88
2021/12/24 08:05:30;;;;;;;;;;;;;;;1.15;58.26;100035.50;5103400;28;19924;-90
2021/12/24 08:07:55;;;;;;;;;;;;;;;1.30;54.86;100035.00;5096664;28;20421;-91
2021/12/24 08:10:23;;;;;;;;;;;;;;;1.59;57.88;100026.31;5090913;28;20004;-90
2021/12/24 08:12:49;;;;;;;;;;;;;;;1.97;55.35;100035.94;5089936;28;19924;-87
2021/12/24 08:15:14;;;;;;;;;;;;;;;2.17;53.76;100040.75;5108588;28;19969;-88
2021/12/24 08:17:39;;;;;;;;;;;;;;;2.11;52.81;100036.28;5095363;28;19931;-89
2021/12/24 08:20:06;;;;;;;;;;;;;;;2.06;52.18;100030.97;5087799;28;20340;-90
2021/12/24 08:22:32;;;;;;;;;;;;;;;1.85;52.70;100031.28;5087923;28;20370;-89
2021/12/24 08:24:57;;;;;;;;;;;;;;;1.60;55.03;100011.56;5087735;28;19927;-89
2021/12/24 08:27:22;;;;;;;;;;;;;;;1.70;54.38;100007.47;5087917;28;19977;-90
2021/12/24 08:29:49;;;;;;;;;;;;;;;1.92;52.57;100014.13;5104774;28;19923;-90
2021/12/24 08:32:14;;;;;;;;;;;;;;;2.13;52.22;100006.84;5108050;28;19919;-91
2021/12/24 08:34:40;;;;;;;;;;;;;;;2.20;51.97;99994.84;5110072;28;19920;-91
2021/12/24 08:37:05;;;;;;;;;;;;;;;2.09;52.58;99991.13;5106925;28;20404;-88
2021/12/24 08:39:31;;;;;;;;;;;;;;;2.12;51.18;99997.28;5107549;28;19920;-88
2021/12/24 08:41:57;;;;;;;;;;;;;;;1.84;51.85;100006.13;5107890;28;20384;-88
2021/12/24 08:44:24;;;;;;;;;;;;;;;1.63;53.59;99997.78;5106771;28;20354;-88
2021/12/24 08:46:50;;;;;;;;;;;;;;;2.10;53.08;99985.97;5108284;28;20038;-88
2021/12/24 08:49:17;;;;;;;;;;;;;;;2.33;52.11;99969.97;5108354;28;20456;-91
2021/12/24 08:51:42;;;;;;;;;;;;;;;2.37;51.45;99968.34;5108591;28;20367;-90
2021/12/24 08:54:08;;;;;;;;;;;;;;;2.10;51.91;99979.84;5108276;28;19968;-88
2021/12/24 08:56:33;;;;;;;;;;;;;;;2.24;52.06;99982.78;5108099;27;19982;-86
2021/12/24 08:58:58;;;;;;;;;;;;;;;2.44;51.59;99981.53;5108454;28;19920;-89
2021/12/24 09:01:24;;;;;;;;;;;;;;;2.51;50.90;99983.41;5107435;28;19977;-88
2021/12/24 09:03:49;;;;;;;;;;;;;;;2.66;50.25;99962.03;5107409;27;19923;-85
2021/12/24 09:06:14;;;;;;;;;;;;;;;2.84;49.86;99961.56;5106176;28;19923;-86
2021/12/24 09:08:43;;;;;;;;;;;;;;;2.67;50.45;99965.50;5107499;28;20028;-86
2021/12/24 09:11:10;;;;;;;;;;;;;;;2.78;50.96;99960.53;5106897;28;20344;-89
2021/12/24 09:13:36;;;;;;;;;;;;;;;2.58;51.41;99957.50;5107937;28;19920;-90
2021/12/24 09:16:01;;;;;;;;;;;;;;;2.39;51.79;99958.81;5103000;28;19930;-89
2021/12/24 09:18:27;;;;;;;;;;;;;;;2.32;52.74;99957.81;5106128;28;20397;-89
2021/12/24 09:20:54;;;;;;;;;;;;;;;2.43;51.69;99953.72;5107136;28;19923;-89
2021/12/24 09:23:20;;;;;;;;;;;;;;;2.78;51.60;99952.72;5102966;28;20099;-90
2021/12/24 09:25:45;;;;;;;;;;;;;;;2.99;49.99;99939.25;5085287;28;19920;-89
2021/12/24 09:28:11;;;;;;;;;;;;;;;3.02;50.56;99941.91;5085642;28;19920;-90
2021/12/24 09:30:36;;;;;;;;;;;;;;;2.93;50.97;99931.31;5087901;28;20347;-89
2021/12/24 09:33:02;;;;;;;;;;;;;;;2.94;52.15;99913.09;5097232;28;19969;-90
2021/12/24 09:35:29;;;;;;;;;;;;;;;2.96;51.94;99908.78;5107615;28;19924;-89
2021/12/24 09:37:55;;;;;;;;;;;;;;;3.04;50.67;99904.59;5107239;27;19919;-90
2021/12/24 09:40:21;;;;;;;;;;;;;;;3.25;49.98;99897.16;5106252;28;19922;-90
2021/12/24 09:42:46;;;;;;;;;;;;;;;3.23;48.99;99886.69;5087264;28;19916;-89
2021/12/24 09:45:12;;;;;;;;;;;;;;;2.90;48.99;99860.88;5087009;28;19920;-89
2021/12/24 09:47:38;;;;;;;;;;;;;;;3.34;49.57;99853.84;5087029;28;20452;-90
2021/12/24 09:50:06;;;;;;;;;;;;;;;3.30;49.11;99840.75;5086964;28;19924;-89
2021/12/24 09:52:32;;;;;;;;;;;;;;;3.25;49.01;99842.41;5087933;28;19920;-89
2021/12/24 09:55:05;;;;;;;;;;;;;;;2.88;49.90;99845.22;5086616;28;19951;-90
2021/12/24 09:57:30;;;;;;;;;;;;;;;2.86;50.29;99845.19;5087735;28;19984;-89
2021/12/24 09:59:56;;;;;;;;;;;;;;;2.74;50.11;99844.97;5087829;28;19920;-89
2021/12/24 10:02:28;;;;;;;;;;;;;;;2.72;50.02;99843.16;5087723;28;19924;-89
2021/12/24 10:04:53;;;;;;;;;;;;;;;2.99;49.90;99846.28;5086998;28;19981;-89
2021/12/24 10:07:24;;;;;;;;;;;;;;;2.74;50.26;99837.16;5087434;28;19928;-89
2021/12/24 10:09:50;;;;;;;;;;;;;;;2.74;49.53;99836.28;5085063;28;19931;-89
2021/12/24 10:12:18;;;;;;;;;;;;;;;2.84;50.61;99835.59;5089440;28;20026;-90
2021/12/24 10:14:47;;;;;;;;;;;;;;;3.07;50.90;99828.19;5090670;28;19916;-91
2021/12/24 10:17:15;;;;;;;;;;;;;;;3.33;50.68;99823.41;5090508;28;19927;-89
2021/12/24 10:19:44;;;;;;;;;;;;;;;3.45;50.17;99809.69;5089663;28;20639;-91
2021/12/24 10:22:11;;;;;;;;;;;;;;;3.46;50.15;99797.53;5090827;28;20305;-89
2021/12/24 10:24:37;;;;;;;;;;;;;;;3.36;49.98;99799.97;5091035;28;19920;-89
2021/12/24 10:27:02;;;;;;;;;;;;;;;3.27;49.72;99805.06;5111176;28;19968;-89
2021/12/24 10:29:29;;;;;;;;;;;;;;;3.27;49.86;99807.66;5110189;27;20461;-89
2021/12/24 10:31:56;;;;;;;;;;;;;;;3.71;48.48;99796.19;5110594;28;19920;-90
2021/12/24 10:34:21;;;;;;;;;;;;;;;3.91;48.58;99799.06;5100536;27;20020;-89
2021/12/24 10:36:54;;;;;;;;;;;;;;;3.72;48.44;99795.28;5090023;28;20390;-88
2021/12/24 10:39:21;;;;;;;;;;;;;;;4.00;47.67;99788.75;5122629;27;19920;-86
2021/12/24 10:41:47;;;;;;;;;;;;;;;3.91;48.16;99786.88;5089931;28;19920;-88
2021/12/24 10:44:20;;;;;;;;;;;;;;;3.64;48.36;99781.28;5091297;28;19977;-91
2021/12/24 10:47:00;;;;;;;;;;;;;;;3.72;47.71;99785.75;5090429;28;20007;-89
2021/12/24 10:52:31;;;;;;;;;;;;;;;4.04;47.10;99780.06;5110597;28;19930;-89
2021/12/24 10:55:05;;;;;;;;;;;;;;;4.29;47.51;99770.81;5109114;28;19923;-87
2021/12/24 10:57:32;;;;;;;;;;;;;;;4.18;47.35;99766.31;5110663;28;19916;-90
2021/12/24 11:00:24;;;;;;;;;;;;;;;4.17;47.73;99767.16;5110762;28;20022;-88
2021/12/24 11:02:51;;;;;;;;;;;;;;;4.29;47.66;99749.94;5108115;28;19998;-88
2021/12/24 11:05:37;;;;;;;;;;;;;;;4.15;47.96;99748.88;5110283;28;19919;-88
2021/12/24 11:08:05;;;;;;;;;;;;;;;4.30;48.01;99766.47;5109660;27;20022;-88
2021/12/24 11:10:40;;;;;;;;;;;;;;;4.40;47.68;99755.28;5110354;28;19916;-88
2021/12/24 11:13:08;;;;;;;;;;;;;;;4.43;47.66;99750.09;5110211;28;20338;-88
2021/12/24 11:15:33;;;;;;;;;;;;;;;4.29;47.39;99744.72;5109867;28;19926;-85
2021/12/24 11:18:01;;;;;;;;;;;;;;;4.38;47.48;99743.06;5109703;28;19920;-89
2021/12/24 11:20:28;;;;;;;;;;;;;;;4.60;47.07;99731.97;5109898;28;20027;-88
2021/12/24 11:22:58;;;;;;;;;;;;;;;4.21;47.95;99728.06;5107811;28;20317;-87
2021/12/24 11:25:25;;;;;;;;;;;;;;;4.30;47.87;99716.84;5109536;28;20409;-86
2021/12/24 11:27:50;;;;;;;;;;;;;;;4.35;48.13;99723.00;5109351;28;19919;-86
2021/12/24 11:30:17;;;;;;;;;;;;;;;4.51;47.79;99726.66;5109830;28;19923;-88
2021/12/24 11:32:43;;;;;;;;;;;;;;;4.46;47.73;99724.00;5109438;28;19920;-89
2021/12/24 11:35:09;;;;;;;;;;;;;;;4.80;47.42;99723.41;5095959;28;19930;-87
2021/12/24 11:37:34;;;;;;;;;;;;;;;4.77;47.40;99711.22;5088581;28;19967;-87
2021/12/24 11:40:01;;;;;;;;;;;;;;;4.72;48.28;99698.97;5087876;28;19916;-86
2021/12/24 11:42:29;;;;;;;;;;;;;;;4.99;47.04;99691.34;5089321;28;19927;-86
2021/12/24 11:44:55;;;;;;;;;;;;;;;4.94;45.66;99692.16;5088974;28;19952;-86
2021/12/24 11:47:21;;;;;;;;;;;;;;;4.83;47.23;99687.75;5088380;28;20397;-85
2021/12/24 11:49:46;;;;;;;;;;;;;;;4.91;46.47;99679.06;5088693;28;19959;-85
2021/12/24 11:52:12;;;;;;;;;;;;;;;5.09;46.57;99687.06;5101427;28;20018;-85
2021/12/24 11:54:37;;;;;;;;;;;;;;;5.04;46.34;99675.69;5109138;28;20408;-86
2021/12/24 11:57:14;;;;;;;;;;;;;;;5.16;46.06;99667.94;5107755;28;19920;-85
2021/12/24 11:59:40;;;;;;;;;;;;;;;5.33;45.24;99664.53;5108659;28;20491;-85
2021/12/24 12:02:07;;;;;;;;;;;;;;;5.33;45.86;99659.31;5108527;28;19924;-86
2021/12/24 12:04:32;;;;;;;;;;;;;;;5.49;45.93;99655.03;5108227;28;19924;-84
2021/12/24 12:07:10;;;;;;;;;;;;;;;5.39;45.64;99648.88;5108403;28;19984;-85
2021/12/24 12:09:40;;;;;;;;;;;;;;;5.42;45.69;99645.41;5107934;28;19919;-87
2021/12/24 12:12:05;;;;;;;;;;;;;;;5.46;45.07;99634.97;5108752;28;20293;-87
2021/12/24 12:14:33;;;;;;;;;;;;;;;5.57;45.56;99638.50;5108751;28;19926;-85
2021/12/24 12:17:01;;;;;;;;;;;;;;;5.55;45.65;99634.13;5108402;28;19916;-84
2021/12/24 12:19:31;;;;;;;;;;;;;;;5.55;45.35;99640.25;5108705;28;19958;-85
2021/12/24 12:22:11;;;;;;;;;;;;;;;5.76;45.18;99633.31;5108378;28;19920;-85
2021/12/24 12:25:00;;;;;;;;;;;;;;;5.55;46.09;99628.91;5108822;28;19927;-84
2021/12/24 12:27:28;;;;;;;;;;;;;;;5.52;46.51;99619.28;5102153;28;19919;-85
2021/12/24 12:29:53;;;;;;;;;;;;;;;5.57;46.62;99614.94;5108230;28;19980;-85
2021/12/24 12:32:19;;;;;;;;;;;;;;;5.62;46.67;99614.09;5108183;28;19920;-85
2021/12/24 12:34:44;;;;;;;;;;;;;;;5.56;46.95;99614.94;5106865;28;19974;-85
2021/12/24 12:37:27;;;;;;;;;;;;;;;5.62;47.02;99619.31;5108335;28;19923;-86
2021/12/24 12:39:54;;;;;;;;;;;;;;;5.99;46.12;99615.09;5087576;28;19924;-86
2021/12/24 12:42:20;;;;;;;;;;;;;;;6.08;45.88;99620.38;5087765;28;20006;-87
2021/12/24 12:44:53;;;;;;;;;;;;;;;5.97;45.67;99619.47;5087634;28;20433;-86
2021/12/24 12:47:23;;;;;;;;;;;;;;;6.17;45.31;99619.50;5101530;28;19924;-84
2021/12/24 12:49:54;;;;;;;;;;;;;;;6.15;45.25;99613.41;5106287;28;19928;-84
2021/12/24 12:52:31;;;;;;;;;;;;;;;6.00;45.38;99605.53;5107934;28;19919;-85
2021/12/24 12:54:56;;;;;;;;;;;;;;;5.97;45.79;99603.75;5108088;28;19916;-86
2021/12/24 12:57:23;;;;;;;;;;;;;;;5.86;46.35;99608.94;5106835;28;20446;-86
2021/12/24 13:00:07;;;;;;;;;;;;;;;5.89;46.22;99600.22;5107896;28;19932;-86
2021/12/24 13:02:51;;;;;;;;;;;;;;;5.80;46.84;99618.53;5107306;28;20393;-85
2021/12/24 13:05:16;;;;;;;;;;;;;;;5.89;46.23;99615.94;5087717;28;19924;-85
2021/12/24 13:07:42;;;;;;;;;;;;;;;5.85;46.46;99616.78;5086408;28;20010;-86
2021/12/24 13:10:07;;;;;;;;;;;;;;;6.11;46.22;99626.50;5087619;28;19920;-86
2021/12/24 13:12:32;;;;;;;;;;;;;;;6.25;45.67;99619.53;5089421;28;19924;-85
2021/12/24 13:15:01;;;;;;;;;;;;;;;6.24;45.59;99610.81;5106153;28;20650;-86
2021/12/24 13:17:33;;;;;;;;;;;;;;;6.19;46.00;99619.53;5106829;28;19997;-84
2021/12/24 13:20:14;;;;;;;;;;;;;;;6.27;45.74;99621.28;5106648;28;19923;-83
2021/12/24 13:22:39;;;;;;;;;;;;;;;6.48;45.45;99618.69;5087452;28;20011;-84
2021/12/24 13:25:11;;;;;;;;;;;;;;;6.25;46.02;99625.63;5086562;28;20428;-85
2021/12/24 13:27:49;;;;;;;;;;;;;;;6.43;45.44;99608.19;5086967;28;20015;-85
2021/12/24 13:30:20;;;;;;;;;;;;;;;6.44;45.45;99604.69;5087405;28;19927;-85
2021/12/24 13:32:48;;;;;;;;;;;;;;;6.38;45.29;99602.06;5096026;28;20389;-84
2021/12/24 13:35:16;;;;;;;;;;;;;;;6.40;45.17;99589.84;5107772;28;19916;-84
2021/12/24 13:37:45;;;;;;;;;;;;;;;6.30;45.77;99593.34;5106055;28;19923;-84
2021/12/24 13:40:12;;;;;;;;;;;;;;;6.25;46.09;99598.56;5107479;28;19920;-84
2021/12/24 13:42:57;;;;;;;;;;;;;;;6.42;45.69;99590.72;5106931;28;19927;-85
2021/12/24 13:45:23;;;;;;;;;;;;;;;6.35;46.32;99581.09;5108631;28;19915;-83
2021/12/24 13:47:56;;;;;;;;;;;;;;;6.47;45.87;99585.47;5111578;28;19947;-83
2021/12/24 13:55:38;;;;;;;;;;;;;;;6.32;45.93;99594.19;5090171;28;20358;-83
2021/12/24 13:58:08;;;;;;;;;;;;;;;6.37;46.10;99580.25;5090801;28;19920;-84
2021/12/24 14:00:35;;;;;;;;;;;;;;;6.41;45.79;99571.50;5090835;28;20396;-83
2021/12/24 14:03:03;;;;;;;;;;;;;;;6.28;46.30;99569.75;5093515;28;19930;-83
2021/12/24 14:05:28;;;;;;;;;;;;;;;6.43;46.45;99571.50;5111159;28;19919;-83
2021/12/24 14:08:03;;;;;;;;;;;;;;;6.46;46.51;99574.13;5109717;28;19924;-83
2021/12/24 14:10:28;;;;;;;;;;;;;;;6.49;49.04;99575.88;5111166;28;20495;-84
2021/12/24 14:12:55;;;;;;;;;;;;;;;6.43;47.56;99571.50;5111206;28;19922;-82
2021/12/24 14:15:26;;;;;;;;;;;;;;;6.01;48.40;99581.06;5109385;28;20308;-84
2021/12/24 14:18:16;;;;;;;;;;;;;;;6.07;48.42;99573.22;5111082;28;19916;-83
2021/12/24 14:23:25;;;;;;;;;;;;;;;6.14;48.08;99561.03;5081236;28;19916;-82
2021/12/24 14:25:54;;;;;;;;;;;;;;;6.15;48.02;99563.66;5102633;28;20003;-82
2021/12/24 14:28:22;;;;;;;;;;;;;;;5.80;48.39;99580.13;5101877;27;19955;-82
2021/12/24 14:30:47;;;;;;;;;;;;;;;5.78;48.22;99576.66;5110699;28;19980;-82
2021/12/24 14:33:13;;;;;;;;;;;;;;;5.70;48.43;99563.53;5110979;28;19924;-85
2021/12/24 14:35:44;;;;;;;;;;;;;;;5.59;48.30;99566.97;5110417;28;20337;-82
2021/12/24 14:38:15;;;;;;;;;;;;;;;5.55;48.80;99569.59;5110943;28;19955;-82
2021/12/24 14:40:40;;;;;;;;;;;;;;;5.59;48.65;99570.47;5109058;28;20724;-83
2021/12/24 14:43:16;;;;;;;;;;;;;;;5.65;48.93;99573.09;5103076;28;19981;-85
2021/12/24 14:45:43;;;;;;;;;;;;;;;5.63;48.67;99579.22;5089776;28;19981;-82
2021/12/24 14:48:16;;;;;;;;;;;;;;;5.45;49.28;99586.09;5089007;28;19916;-83